Time,TemperatureF,DewpointF,PressureIn,WindDirection,WindDirectionDegrees,WindSpeedMPH,WindSpeedGustMPH,Humidity,HourlyPrecipIn,Conditions,Clouds,dailyrainin,SoftwareType,DateUTC
2013-02-02 00:00:00,11.8,11.6,29.27,SW,222,0.0,3.0,99,0.00, +RA BR, +RA,-99.99,VWS V12.06,2013-02-02 06:00:00,
2013-02-02 00:10:00,12.2,12.2,29.26,SW,222,0.0,4.0,100,0.00, +RA BR, +RA,-99.99,VWS V12.06,2013-02-02 06:10:00,
2013-02-02 00:15:00,12.3,12.3,29.26,SW,222,0.0,4.0,100,0.00, +RA BR, +RA,-99.99,VWS V12.06,2013-02-02 06:15:00,
2013-02-02 00:20:00,12.5,12.5,29.25,SW,222,2.0,5.0,100,0.00, +RA BR, +RA,-99.99,VWS V12.06,2013-02-02 06:20:00,
2013-02-02 00:25:00,12.5,12.5,29.25,SW,222,0.0,5.0,100,0.00, +RA BR, +RA,-99.99,VWS V12.06,2013-02-02 06:25:00,
2013-02-02 00:30:00,12.7,12.7,29.25,SW,222,2.0,5.0,100,0.00, +RA BR, +RA,-99.99,VWS V12.06,2013-02-02 06:30:00,
2013-02-02 00:35:00,12.8,12.8,29.24,SSW,211,0.0,4.0,100,0.00, +RA BR, +RA,-99.99,VWS V12.06,2013-02-02 06:35:00,
2013-02-02 00:40:00,13.0,13.0,29.24,SSW,206,0.0,5.0,100,0.00, +RA BR, +RA,-99.99,VWS V12.06,2013-02-02 06:40:00,
2013-02-02 00:50:00,13.2,13.2,29.24,SSW,195,0.0,6.0,100,0.00, +RA BR, +RA,-99.99,VWS V12.06,2013-02-02 06:50:00,
2013-02-02 00:55:00,13.3,13.3,29.23,SSW,194,0.0,6.0,100,0.00, +RA BR, +RA,-99.99,VWS V12.06,2013-02-02 06:55:00,
2013-02-02 01:00:00,13.5,13.5,29.23,SSW,195,1.0,6.0,100,0.00, +RA BR, +RA,-99.99,VWS V12.06,2013-02-02 07:00:00,
2013-02-02 01:10:00,13.7,13.7,29.23,SSW,194,2.0,5.0,100,0.00, +RA BR, +RA,-99.99,VWS V12.06,2013-02-02 07:10:00,
2013-02-02 01:15:00,13.8,13.8,29.23,South,171,1.0,7.0,100,0.00, +RA BR, +RA,-99.99,VWS V12.06,2013-02-02 07:15:00,
2013-02-02 01:20:00,14.0,14.0,29.23,South,171,0.0,7.0,100,0.00, +RA BR, +RA,-99.99,VWS V12.06,2013-02-02 07:20:00,
2013-02-02 01:30:00,14.1,14.1,29.22,South,171,1.0,7.0,100,0.00, +RA BR, +RA,-99.99,VWS V12.06,2013-02-02 07:30:00,
2013-02-02 01:40:00,14.5,14.5,29.22,South,171,0.0,7.0,100,0.00, +RA BR, +RA,-99.99,VWS V12.06,2013-02-02 07:40:00,
2013-02-02 01:45:00,14.5,14.5,29.22,South,171,1.0,7.0,100,0.00, +RA BR, +RA,-99.99,VWS V12.06,2013-02-02 07:45:00,
2013-02-02 01:50:00,14.6,14.6,29.22,South,170,0.0,7.0,100,0.00, +RA BR, +RA,-99.99,VWS V12.06,2013-02-02 07:50:00,
2013-02-02 01:55:00,14.8,14.8,29.22,South,170,1.0,7.0,100,0.00, +RA BR, +RA,-99.99,VWS V12.06,2013-02-02 07:55:00,
2013-02-02 02:00:00,14.8,14.8,29.21,South,170,2.0,7.0,100,0.00, +RA BR, +RA,-99.99,VWS V12.06,2013-02-02 08:00:00,
2013-02-02 02:10:00,15.0,15.0,29.21,South,170,1.0,6.0,100,0.00, +RA BR, +RA,-99.99,VWS V12.06,2013-02-02 08:10:00,
2013-02-02 02:15:00,15.1,15.1,29.20,South,170,3.0,6.0,100,0.00, +RA BR, +RA,-99.99,VWS V12.06,2013-02-02 08:15:00,
2013-02-02 02:20:00,15.3,15.3,29.20,South,171,1.0,7.0,100,0.00, +RA BR, +RA,-99.99,VWS V12.06,2013-02-02 08:20:00,
2013-02-02 02:25:00,15.4,15.4,29.20,South,171,1.0,7.0,100,0.00, +RA BR, +RA,-99.99,VWS V12.06,2013-02-02 08:25:00,
2013-02-02 02:30:00,15.6,15.6,29.21,South,171,0.0,7.0,100,0.00, +RA BR, +RA,-99.99,VWS V12.06,2013-02-02 08:30:00,
2013-02-02 02:40:00,15.9,15.9,29.19,South,173,2.0,7.0,100,0.00, +RA BR, +RA,-99.99,VWS V12.06,2013-02-02 08:40:00,
2013-02-02 02:45:00,16.1,16.1,29.19,South,183,1.0,7.0,100,0.00, +RA BR, +RA,-99.99,VWS V12.06,2013-02-02 08:45:00,
2013-02-02 02:50:00,16.3,16.3,29.19,South,183,0.0,7.0,100,0.00, +RA BR, +RA,-99.99,VWS V12.06,2013-02-02 08:50:00,
2013-02-02 02:55:00,16.3,16.3,29.19,South,184,1.0,7.0,100,0.00, +RA BR, +RA,-99.99,VWS V12.06,2013-02-02 08:55:00,
2013-02-02 03:00:00,16.4,16.4,29.18,South,185,4.0,7.0,100,0.00, +RA BR, +RA,-99.99,VWS V12.06,2013-02-02 09:00:00,
2013-02-02 03:10:00,16.8,16.8,29.17,South,185,3.0,6.0,100,0.00, +RA BR, +RA,-99.99,VWS V12.06,2013-02-02 09:10:00,
2013-02-02 03:15:00,16.9,16.9,29.18,South,185,0.0,6.0,100,0.00, +RA BR, +RA,-99.99,VWS V12.06,2013-02-02 09:15:00,
2013-02-02 03:20:00,16.9,16.9,29.18,South,185,2.0,6.0,100,0.00, +RA BR, +RA,-99.99,VWS V12.06,2013-02-02 09:20:00,
2013-02-02 03:30:00,17.4,17.4,29.17,South,185,2.0,6.0,100,0.00, +RA BR, +RA,-99.99,VWS V12.06,2013-02-02 09:30:00,
2013-02-02 03:35:00,17.5,17.5,29.17,South,186,3.0,8.0,100,0.00, +RA BR, +RA,-99.99,VWS V12.06,2013-02-02 09:35:00,
2013-02-02 03:40:00,17.7,17.7,29.16,South,189,0.0,8.0,100,0.00, +RA BR, +RA,-99.99,VWS V12.06,2013-02-02 09:40:00,
2013-02-02 03:45:00,17.8,17.8,29.16,South,189,2.0,8.0,100,0.00, +RA BR, +RA,-99.99,VWS V12.06,2013-02-02 09:45:00,
2013-02-02 03:50:00,18.0,18.0,29.17,South,189,1.0,8.0,100,0.00, +RA BR, +RA,-99.99,VWS V12.06,2013-02-02 09:50:00,
2013-02-02 03:55:00,18.0,18.0,29.17,SSW,192,2.0,8.0,100,0.00, +RA BR, +RA,-99.99,VWS V12.06,2013-02-02 09:55:00,
2013-02-02 04:00:00,18.1,18.1,29.16,SSW,193,2.0,8.0,100,0.00, +RA BR, +RA,-99.99,VWS V12.06,2013-02-02 10:00:00,
2013-02-02 04:05:00,18.3,18.3,29.16,SSW,193,2.0,7.0,100,0.00, +RA BR, +RA,-99.99,VWS V12.06,2013-02-02 10:05:00,
2013-02-02 04:10:00,18.5,18.5,29.16,SSW,195,5.0,8.0,100,0.00, +RA BR, +RA,-99.99,VWS V12.06,2013-02-02 10:10:00,
2013-02-02 04:15:00,18.6,18.6,29.16,SSW,195,1.0,8.0,100,0.00, +RA BR, +RA,-99.99,VWS V12.06,2013-02-02 10:15:00,
2013-02-02 04:20:00,18.8,18.8,29.15,SSW,195,1.0,8.0,100,0.00, +RA BR, +RA,-99.99,VWS V12.06,2013-02-02 10:20:00,
2013-02-02 04:30:00,18.9,18.9,29.16,SSW,195,5.0,8.0,100,0.00, +RA BR, +RA,-99.99,VWS V12.06,2013-02-02 10:30:00,
2013-02-02 04:35:00,19.1,19.1,29.15,SSW,195,5.0,5.0,100,0.00, +RA BR, +RA,-99.99,VWS V12.06,2013-02-02 10:35:00,
2013-02-02 04:40:00,19.3,19.3,29.15,SSW,195,4.0,7.0,100,0.00, +RA BR, +RA,-99.99,VWS V12.06,2013-02-02 10:40:00,
2013-02-02 04:45:00,19.3,19.3,29.15,SSW,195,1.0,7.0,100,0.00, +RA BR, +RA,-99.99,VWS V12.06,2013-02-02 10:45:00,
2013-02-02 04:50:00,19.4,19.4,29.15,SSW,195,0.0,7.0,100,0.00, +RA BR, +RA,-99.99,VWS V12.06,2013-02-02 10:50:00,
2013-02-02 04:55:00,19.4,19.4,29.15,SSW,195,2.0,7.0,100,0.00, +RA BR, +RA,-99.99,VWS V12.06,2013-02-02 10:55:00,
2013-02-02 05:00:00,19.6,19.6,29.15,SSW,195,0.0,7.0,100,0.00, +RA BR, +RA,-99.99,VWS V12.06,2013-02-02 11:00:00,
2013-02-02 05:05:00,19.6,19.6,29.15,SSW,195,1.0,5.0,100,0.00, +RA BR, +RA,-99.99,VWS V12.06,2013-02-02 11:05:00,
2013-02-02 05:10:00,19.6,19.6,29.14,SSW,195,0.0,5.0,100,0.00, +RA BR, +RA,-99.99,VWS V12.06,2013-02-02 11:10:00,
2013-02-02 05:15:00,19.6,19.6,29.15,SSW,195,0.0,5.0,100,0.00, +RA BR, +RA,-99.99,VWS V12.06,2013-02-02 11:15:00,
2013-02-02 05:20:00,19.7,19.7,29.15,SSW,195,0.0,5.0,100,0.00, +RA BR, +RA,-99.99,VWS V12.06,2013-02-02 11:20:00,
2013-02-02 05:30:00,19.7,19.7,29.15,SSW,195,2.0,5.0,100,0.00, +RA BR, +RA,-99.99,VWS V12.06,2013-02-02 11:30:00,
2013-02-02 05:35:00,19.9,19.9,29.15,SSW,195,3.0,4.0,100,0.00, +RA BR, +RA,-99.99,VWS V12.06,2013-02-02 11:35:00,
2013-02-02 05:40:00,20.0,20.0,29.15,SSW,195,4.0,5.0,100,0.00, +RA BR, +RA,-99.99,VWS V12.06,2013-02-02 11:40:00,
2013-02-02 05:45:00,20.0,20.0,29.15,SSW,195,2.0,6.0,100,0.00, +RA BR, +RA,-99.99,VWS V12.06,2013-02-02 11:45:00,
2013-02-02 05:50:00,20.2,20.2,29.15,SSW,195,3.0,6.0,100,0.00, +RA BR, +RA,-99.99,VWS V12.06,2013-02-02 11:50:00,
2013-02-02 05:55:00,20.4,20.4,29.15,SSW,195,4.0,6.0,100,0.00, +RA BR, +RA,-99.99,VWS V12.06,2013-02-02 11:55:00,
2013-02-02 06:00:00,20.5,20.5,29.15,SSW,195,4.0,6.0,100,0.00, +RA BR, +RA,-99.99,VWS V12.06,2013-02-02 12:00:00,
2013-02-02 06:05:00,20.6,20.6,29.15,SSW,195,2.0,4.0,100,0.00, +RA BR, +RA,-99.99,VWS V12.06,2013-02-02 12:05:00,
2013-02-02 06:10:00,20.6,20.6,29.15,SSW,195,2.0,5.0,100,0.00, +RA BR, +RA,-99.99,VWS V12.06,2013-02-02 12:10:00,
2013-02-02 06:15:00,20.6,20.6,29.15,SSW,195,1.0,5.0,100,0.00, +RA BR, +RA,-99.99,VWS V12.06,2013-02-02 12:15:00,
2013-02-02 06:20:00,20.6,20.6,29.15,SSW,195,0.0,5.0,100,0.00, +RA BR, +RA,-99.99,VWS V12.06,2013-02-02 12:20:00,
2013-02-02 06:25:00,20.6,20.6,29.15,SSW,195,0.0,5.0,100,0.00, +RA BR, +RA,-99.99,VWS V12.06,2013-02-02 12:25:00,
2013-02-02 06:30:00,20.6,20.6,29.15,SSW,195,3.0,5.0,100,0.00, +RA BR, +RA,-99.99,VWS V12.06,2013-02-02 12:30:00,
2013-02-02 06:35:00,20.6,20.6,29.15,SSW,195,2.0,5.0,100,0.00, +RA BR, +RA,-99.99,VWS V12.06,2013-02-02 12:35:00,
2013-02-02 06:40:00,20.6,20.6,29.15,SSW,195,0.0,5.0,100,0.00, +RA BR, +RA,-99.99,VWS V12.06,2013-02-02 12:40:00,
2013-02-02 06:45:00,20.5,20.5,29.15,SSW,195,0.0,5.0,100,0.00, +RA BR, +RA,-99.99,VWS V12.06,2013-02-02 12:45:00,
2013-02-02 06:50:00,20.2,20.2,29.16,SSW,195,2.0,5.0,100,0.00, +RA BR, +RA,-99.99,VWS V12.06,2013-02-02 12:50:00,
2013-02-02 06:55:00,19.9,19.9,29.17,SSW,195,0.0,5.0,100,0.00, +RA BR, +RA,-99.99,VWS V12.06,2013-02-02 12:55:00,
2013-02-02 07:00:00,19.7,19.7,29.16,SSW,195,0.0,5.0,100,0.00, +RA BR, +RA,-99.99,VWS V12.06,2013-02-02 13:00:00,
2013-02-02 07:05:00,19.6,19.6,29.17,SSW,195,1.0,3.0,100,0.00, +RA BR, +RA,-99.99,VWS V12.06,2013-02-02 13:05:00,
2013-02-02 07:10:00,19.4,19.4,29.16,SSW,195,4.0,4.0,100,0.00, +RA BR, +RA,-99.99,VWS V12.06,2013-02-02 13:10:00,
2013-02-02 07:15:00,19.1,19.1,29.17,SSW,195,0.0,5.0,100,0.00, +RA BR, +RA,-99.99,VWS V12.06,2013-02-02 13:15:00,
2013-02-02 07:20:00,18.8,18.8,29.17,SSW,195,2.0,5.0,100,0.00, +RA BR, +RA,-99.99,VWS V12.06,2013-02-02 13:20:00,
2013-02-02 07:25:00,18.6,18.6,29.17,SSW,195,1.0,5.0,100,0.00, +RA BR, +RA,-99.99,VWS V12.06,2013-02-02 13:25:00,
2013-02-02 07:30:00,18.5,18.5,29.17,SSW,195,3.0,5.0,100,0.00, +RA BR, +RA,-99.99,VWS V12.06,2013-02-02 13:30:00,
2013-02-02 07:35:00,18.5,18.5,29.17,SSW,195,2.0,5.0,100,0.00, +RA BR, +RA,-99.99,VWS V12.06,2013-02-02 13:35:00,
2013-02-02 07:40:00,18.2,18.2,29.17,SSW,195,1.0,5.0,100,0.00, +RA BR, +RA,-99.99,VWS V12.06,2013-02-02 13:40:00,
2013-02-02 07:45:00,18.1,18.1,29.18,SSW,195,3.0,6.0,100,0.00, +RA BR, +RA,-99.99,VWS V12.06,2013-02-02 13:45:00,
2013-02-02 07:50:00,17.8,17.8,29.18,SSW,195,3.0,6.0,100,0.00, +RA BR, +RA,-99.99,VWS V12.06,2013-02-02 13:50:00,
2013-02-02 07:55:00,17.5,17.5,29.18,SSW,195,3.0,7.0,100,0.00, +RA BR, +RA,-99.99,VWS V12.06,2013-02-02 13:55:00,
2013-02-02 08:00:00,17.4,17.4,29.18,SSW,195,2.0,10.0,100,0.00, +RA BR, +RA,-99.99,VWS V12.06,2013-02-02 14:00:00,
2013-02-02 08:05:00,17.2,17.2,29.18,SSW,195,3.0,10.0,100,0.00, +RA BR, +RA,-99.99,VWS V12.06,2013-02-02 14:05:00,
2013-02-02 08:15:00,16.6,16.6,29.18,SSW,195,4.0,10.0,100,0.00, +RA BR, +RA,-99.99,VWS V12.06,2013-02-02 14:15:00,
2013-02-02 08:20:00,15.6,15.6,29.19,SSW,194,10.0,11.0,100,0.00, +RA BR, +RA,-99.99,VWS V12.06,2013-02-02 14:20:00,
2013-02-02 08:30:00,13.5,13.5,29.20,North,0,7.0,11.0,100,0.00, +RA BR, +RA,-99.99,VWS V12.06,2013-02-02 14:30:00,
2013-02-02 08:35:00,12.8,12.8,29.20,North,0,6.0,12.0,100,0.00, +RA BR, +RA,-99.99,VWS V12.06,2013-02-02 14:35:00,
2013-02-02 08:40:00,12.0,12.0,29.20,North,0,7.0,12.0,100,0.00, +RA BR, +RA,-99.99,VWS V12.06,2013-02-02 14:40:00,
2013-02-02 08:45:00,11.6,11.6,29.20,North,0,4.0,12.0,100,0.00, +RA BR, +RA,-99.99,VWS V12.06,2013-02-02 14:45:00,
2013-02-02 08:50:00,11.1,10.9,29.20,North,0,4.0,13.0,99,0.00, +RA BR, +RA,-99.99,VWS V12.06,2013-02-02 14:50:00,
2013-02-02 09:02:00,10.5,9.8,29.22,North,3,6.0,6.0,97,0.00, +RA BR, +RA,-99.99,VWS V12.06,2013-02-02 15:02:00,
2013-02-02 09:10:00,10.2,9.5,29.21,North,3,8.0,11.0,97,0.00, +RA BR, +RA,-99.99,VWS V12.06,2013-02-02 15:10:00,
2013-02-02 09:15:00,9.9,9.0,29.22,North,3,5.0,11.0,96,0.00, +RA BR, +RA,-99.99,VWS V12.06,2013-02-02 15:15:00,
2013-02-02 09:20:00,9.7,8.8,29.21,North,3,4.0,11.0,96,0.00, +RA BR, +RA,-99.99,VWS V12.06,2013-02-02 15:20:00,
2013-02-02 09:25:00,9.8,8.7,29.21,North,3,4.0,11.0,95,0.00, +RA BR, +RA,-99.99,VWS V12.06,2013-02-02 15:25:00,
2013-02-02 09:30:00,9.6,8.2,29.22,North,2,6.0,16.0,94,0.00, +RA BR, +RA,-99.99,VWS V12.06,2013-02-02 15:30:00,
2013-02-02 09:40:00,9.4,8.0,29.21,North,0,3.0,12.0,94,0.00, +RA BR, +RA,-99.99,VWS V12.06,2013-02-02 15:40:00,
2013-02-02 09:45:00,9.4,7.8,29.22,North,0,4.0,12.0,93,0.00, +RA BR, +RA,-99.99,VWS V12.06,2013-02-02 15:45:00,
2013-02-02 09:50:00,9.6,8.2,29.22,North,0,2.0,12.0,94,0.00, +RA BR, +RA,-99.99,VWS V12.06,2013-02-02 15:50:00,
2013-02-02 09:55:00,9.6,8.0,29.22,North,0,5.0,12.0,93,0.00, +RA BR, +RA,-99.99,VWS V12.06,2013-02-02 15:55:00,
2013-02-02 10:00:00,9.4,7.6,29.22,North,0,4.0,12.0,92,0.00, +RA BR, +RA,-99.99,VWS V12.06,2013-02-02 16:00:00,
2013-02-02 10:10:00,9.4,7.6,29.22,North,0,2.0,9.0,92,0.00, +RA BR, +RA,-99.99,VWS V12.06,2013-02-02 16:10:00,
2013-02-02 10:15:00,9.4,7.6,29.22,North,0,4.0,9.0,92,0.00, +RA BR, +RA,-99.99,VWS V12.06,2013-02-02 16:15:00,
2013-02-02 10:20:00,9.4,7.6,29.22,North,0,6.0,9.0,92,0.00, +RA BR, +RA,-99.99,VWS V12.06,2013-02-02 16:20:00,
2013-02-02 10:25:00,9.4,7.6,29.23,North,0,4.0,9.0,92,0.00, +RA BR, +RA,-99.99,VWS V12.06,2013-02-02 16:25:00,
2013-02-02 10:30:00,9.6,7.8,29.22,North,0,4.0,9.0,92,0.00, +RA BR, +RA,-99.99,VWS V12.06,2013-02-02 16:30:00,
2013-02-02 10:35:00,9.6,7.5,29.23,North,0,4.0,7.0,91,0.00, +RA BR, +RA,-99.99,VWS V12.06,2013-02-02 16:35:00,
2013-02-02 10:40:00,9.7,7.6,29.23,North,0,6.0,9.0,91,0.00, +RA BR, +RA,-99.99,VWS V12.06,2013-02-02 16:40:00,
2013-02-02 10:45:00,9.6,7.3,29.24,North,0,4.0,10.0,90,0.00, +RA BR, +RA,-99.99,VWS V12.06,2013-02-02 16:45:00,
2013-02-02 10:50:00,9.5,6.9,29.24,North,0,6.0,10.0,89,0.00, +RA BR, +RA,-99.99,VWS V12.06,2013-02-02 16:50:00,
2013-02-02 11:00:00,9.6,7.0,29.24,North,0,4.0,10.0,89,0.00, +RA BR, +RA,-99.99,VWS V12.06,2013-02-02 17:00:00,
2013-02-02 11:05:00,9.6,6.8,29.24,North,0,3.0,9.0,88,0.00, +RA BR, +RA,-99.99,VWS V12.06,2013-02-02 17:05:00,
2013-02-02 11:10:00,9.5,6.7,29.24,North,0,5.0,9.0,88,0.00, +RA BR, +RA,-99.99,VWS V12.06,2013-02-02 17:10:00,
2013-02-02 11:15:00,9.6,6.5,29.23,North,0,5.0,9.0,87,0.00, +RA BR, +RA,-99.99,VWS V12.06,2013-02-02 17:15:00,
2013-02-02 11:20:00,9.6,6.3,29.23,North,0,3.0,9.0,86,0.00, +RA BR, +RA,-99.99,VWS V12.06,2013-02-02 17:20:00,
2013-02-02 11:25:00,9.7,6.4,29.23,North,0,3.0,9.0,86,0.00, +RA BR, +RA,-99.99,VWS V12.06,2013-02-02 17:25:00,
2013-02-02 11:30:00,9.7,6.4,29.22,North,0,2.0,9.0,86,0.00, +RA BR, +RA,-99.99,VWS V12.06,2013-02-02 17:30:00,
2013-02-02 11:35:00,10.0,6.9,29.23,North,0,0.0,7.0,87,0.00, +RA BR, +RA,-99.99,VWS V12.06,2013-02-02 17:35:00,
2013-02-02 11:40:00,10.1,6.8,29.23,North,0,5.0,7.0,86,0.00, +RA BR, +RA,-99.99,VWS V12.06,2013-02-02 17:40:00,
2013-02-02 11:45:00,10.2,6.8,29.23,North,0,2.0,7.0,86,0.00, +RA BR, +RA,-99.99,VWS V12.06,2013-02-02 17:45:00,
2013-02-02 11:54:00,10.3,6.4,29.23,North,0,4.0,8.0,84,0.00, +RA BR, +RA,-99.99,VWS V12.06,2013-02-02 17:54:00,
2013-02-02 12:00:00,10.3,6.2,29.23,North,0,2.0,8.0,83,0.00, +RA BR, +RA,-99.99,VWS V12.06,2013-02-02 18:00:00,
2013-02-02 12:04:00,10.3,5.4,29.23,North,0,5.0,9.0,80,0.00, +RA BR, +RA,-99.99,VWS V12.06,2013-02-02 18:04:00,
2013-02-02 12:09:00,10.3,5.6,29.23,North,0,4.0,9.0,81,0.00, +RA BR, +RA,-99.99,VWS V12.06,2013-02-02 18:09:00,
2013-02-02 12:14:00,10.8,5.9,29.23,North,0,1.0,9.0,80,0.00, +RA BR, +RA,-99.99,VWS V12.06,2013-02-02 18:14:00,
2013-02-02 12:19:00,11.0,6.1,29.23,North,0,5.0,9.0,80,0.00, +RA BR, +RA,-99.99,VWS V12.06,2013-02-02 18:19:00,
2013-02-02 12:24:00,10.8,5.3,29.22,North,0,3.0,9.0,78,0.00, +RA BR, +RA,-99.99,VWS V12.06,2013-02-02 18:24:00,
2013-02-02 12:29:00,10.8,5.0,29.22,North,0,5.0,9.0,77,0.00, +RA BR, +RA,-99.99,VWS V12.06,2013-02-02 18:29:00,
2013-02-02 12:34:00,10.8,4.7,29.22,SSE,159,7.0,7.0,76,0.00, +RA BR, +RA,-99.99,VWS V12.06,2013-02-02 18:34:00,
2013-02-02 12:39:00,10.6,4.5,29.21,North,0,4.0,8.0,76,0.00, +RA BR, +RA,-99.99,VWS V12.06,2013-02-02 18:39:00,
2013-02-02 12:49:00,11.1,5.0,29.22,North,8,3.0,8.0,76,0.00, +RA BR, +RA,-99.99,VWS V12.06,2013-02-02 18:49:00,
2013-02-02 12:54:00,11.0,4.9,29.21,North,2,6.0,8.0,76,0.00, +RA BR, +RA,-99.99,VWS V12.06,2013-02-02 18:54:00,
2013-02-02 12:59:00,11.3,5.2,29.21,North,0,7.0,8.0,76,0.00, +RA BR, +RA,-99.99,VWS V12.06,2013-02-02 18:59:00,
2013-02-02 13:04:00,11.1,4.7,29.22,North,0,4.0,8.0,75,0.00, +RA BR, +RA,-99.99,VWS V12.06,2013-02-02 19:04:00,
2013-02-02 13:09:00,11.1,4.7,29.22,North,0,4.0,8.0,75,0.00, +RA BR, +RA,-99.99,VWS V12.06,2013-02-02 19:09:00,
2013-02-02 13:14:00,11.1,4.4,29.22,North,2,2.0,9.0,74,0.00, +RA BR, +RA,-99.99,VWS V12.06,2013-02-02 19:14:00,
2013-02-02 13:19:00,11.3,4.6,29.22,North,1,2.0,9.0,74,0.00, +RA BR, +RA,-99.99,VWS V12.06,2013-02-02 19:19:00,
2013-02-02 13:24:00,11.5,4.5,29.22,North,0,1.0,9.0,73,0.00, +RA BR, +RA,-99.99,VWS V12.06,2013-02-02 19:24:00,
2013-02-02 13:29:00,11.5,4.5,29.22,North,0,7.0,9.0,73,0.00, +RA BR, +RA,-99.99,VWS V12.06,2013-02-02 19:29:00,
2013-02-02 13:34:00,11.2,4.0,29.22,North,0,4.0,8.0,72,0.00, +RA BR, +RA,-99.99,VWS V12.06,2013-02-02 19:34:00,
2013-02-02 13:39:00,11.5,4.2,29.22,North,0,2.0,8.0,72,0.00, +RA BR, +RA,-99.99,VWS V12.06,2013-02-02 19:39:00,
2013-02-02 13:49:00,11.8,5.1,29.22,North,0,3.0,8.0,74,0.00, +RA BR, +RA,-99.99,VWS V12.06,2013-02-02 19:49:00,
2013-02-02 13:54:00,12.0,5.0,29.22,North,0,5.0,8.0,73,0.00, +RA BR, +RA,-99.99,VWS V12.06,2013-02-02 19:54:00,
2013-02-02 13:59:00,11.8,4.8,29.22,North,0,4.0,8.0,73,0.00, +RA BR, +RA,-99.99,VWS V12.06,2013-02-02 19:59:00,
2013-02-02 14:04:00,12.2,5.2,29.23,North,0,1.0,5.0,73,0.00, +RA BR, +RA,-99.99,VWS V12.06,2013-02-02 20:04:00,
2013-02-02 14:09:00,12.3,5.3,29.24,North,0,0.0,5.0,73,0.00, +RA BR, +RA,-99.99,VWS V12.06,2013-02-02 20:09:00,
2013-02-02 14:14:00,12.3,5.0,29.24,North,357,6.0,7.0,72,0.00, +RA BR, +RA,-99.99,VWS V12.06,2013-02-02 20:14:00,
2013-02-02 14:19:00,12.3,5.0,29.23,North,356,0.0,7.0,72,0.00, +RA BR, +RA,-99.99,VWS V12.06,2013-02-02 20:19:00,
2013-02-02 14:24:00,12.2,4.3,29.23,North,356,1.0,7.0,70,0.00, +RA BR, +RA,-99.99,VWS V12.06,2013-02-02 20:24:00,
2013-02-02 14:29:00,12.2,4.3,29.23,North,356,2.0,7.0,70,0.00, +RA BR, +RA,-99.99,VWS V12.06,2013-02-02 20:29:00,
2013-02-02 14:34:00,12.2,4.0,29.24,North,356,1.0,4.0,69,0.00, +RA BR, +RA,-99.99,VWS V12.06,2013-02-02 20:34:00,
2013-02-02 14:44:00,11.8,3.6,29.23,North,356,3.0,6.0,69,0.00, +RA BR, +RA,-99.99,VWS V12.06,2013-02-02 20:44:00,
2013-02-02 14:49:00,12.0,4.1,29.23,North,356,2.0,6.0,70,0.00, +RA BR, +RA,-99.99,VWS V12.06,2013-02-02 20:49:00,
2013-02-02 14:54:00,12.0,4.1,29.23,North,356,1.0,6.0,70,0.00, +RA BR, +RA,-99.99,VWS V12.06,2013-02-02 20:54:00,
2013-02-02 14:59:00,11.8,3.9,29.24,North,355,2.0,6.0,70,0.00, +RA BR, +RA,-99.99,VWS V12.06,2013-02-02 20:59:00,
2013-02-02 15:04:00,11.7,3.8,29.24,North,355,1.0,5.0,70,0.00, +RA BR, +RA,-99.99,VWS V12.06,2013-02-02 21:04:00,
2013-02-02 15:09:00,11.7,4.1,29.24,North,355,1.0,5.0,71,0.00, +RA BR, +RA,-99.99,VWS V12.06,2013-02-02 21:09:00,
2013-02-02 15:14:00,11.5,3.6,29.24,North,355,0.0,5.0,70,0.00, +RA BR, +RA,-99.99,VWS V12.06,2013-02-02 21:14:00,
2013-02-02 15:19:00,11.3,4.1,29.24,North,355,0.0,5.0,72,0.00, +RA BR, +RA,-99.99,VWS V12.06,2013-02-02 21:19:00,
2013-02-02 15:24:00,11.3,4.1,29.24,North,355,0.0,5.0,72,0.00, +RA BR, +RA,-99.99,VWS V12.06,2013-02-02 21:24:00,
2013-02-02 15:34:00,11.2,4.0,29.25,North,355,2.0,5.0,72,0.00, +RA BR, +RA,-99.99,VWS V12.06,2013-02-02 21:34:00,
2013-02-02 15:39:00,11.0,4.1,29.24,North,355,2.0,5.0,73,0.00, +RA BR, +RA,-99.99,VWS V12.06,2013-02-02 21:39:00,
2013-02-02 15:44:00,11.1,4.4,29.24,North,355,1.0,5.0,74,0.00, +RA BR, +RA,-99.99,VWS V12.06,2013-02-02 21:44:00,
2013-02-02 15:49:00,11.2,4.2,29.24,North,355,2.0,5.0,73,0.00, +RA BR, +RA,-99.99,VWS V12.06,2013-02-02 21:49:00,
2013-02-02 15:54:00,11.1,4.2,29.24,North,355,2.0,5.0,73,0.00, +RA BR, +RA,-99.99,VWS V12.06,2013-02-02 21:54:00,
2013-02-02 15:59:00,11.2,4.2,29.24,North,355,0.0,5.0,73,0.00, +RA BR, +RA,-99.99,VWS V12.06,2013-02-02 21:59:00,
2013-02-02 16:04:00,11.0,4.1,29.25,North,355,1.0,4.0,73,0.00, +RA BR, +RA,-99.99,VWS V12.06,2013-02-02 22:04:00,
2013-02-02 16:09:00,11.0,3.8,29.24,North,355,3.0,5.0,72,0.00, +RA BR, +RA,-99.99,VWS V12.06,2013-02-02 22:09:00,
2013-02-02 16:14:00,10.8,3.9,29.25,North,355,0.0,5.0,73,0.00, +RA BR, +RA,-99.99,VWS V12.06,2013-02-02 22:14:00,
2013-02-02 16:19:00,10.8,3.6,29.25,North,355,2.0,5.0,72,0.00, +RA BR, +RA,-99.99,VWS V12.06,2013-02-02 22:19:00,
2013-02-02 16:24:00,10.8,3.9,29.25,North,355,0.0,5.0,73,0.00, +RA BR, +RA,-99.99,VWS V12.06,2013-02-02 22:24:00,
2013-02-02 16:34:00,10.7,3.5,29.24,North,355,0.0,3.0,72,0.00, +RA BR, +RA,-99.99,VWS V12.06,2013-02-02 22:34:00,
2013-02-02 16:39:00,10.5,3.3,29.24,North,355,1.0,3.0,72,0.00, +RA BR, +RA,-99.99,VWS V12.06,2013-02-02 22:39:00,
2013-02-02 16:44:00,10.3,3.1,29.24,North,355,1.0,3.0,72,0.00, +RA BR, +RA,-99.99,VWS V12.06,2013-02-02 22:44:00,
2013-02-02 16:49:00,10.2,3.3,29.24,North,355,0.0,3.0,73,0.00, +RA BR, +RA,-99.99,VWS V12.06,2013-02-02 22:49:00,
2013-02-02 16:54:00,10.2,3.3,29.25,North,355,0.0,3.0,73,0.00, +RA BR, +RA,-99.99,VWS V12.06,2013-02-02 22:54:00,
2013-02-02 16:59:00,10.0,3.1,29.25,North,355,0.0,3.0,73,0.00, +RA BR, +RA,-99.99,VWS V12.06,2013-02-02 22:59:00,
2013-02-02 17:04:00,10.0,3.1,29.25,North,355,0.0,0.0,73,0.00, +RA BR, +RA,-99.99,VWS V12.06,2013-02-02 23:04:00,
2013-02-02 17:09:00,10.0,3.4,29.25,North,355,0.0,0.0,74,0.00, +RA BR, +RA,-99.99,VWS V12.06,2013-02-02 23:09:00,
2013-02-02 17:14:00,10.0,3.4,29.25,North,355,0.0,0.0,74,0.00, +RA BR, +RA,-99.99,VWS V12.06,2013-02-02 23:14:00,
2013-02-02 17:19:00,10.0,3.4,29.25,North,355,0.0,0.0,74,0.00, +RA BR, +RA,-99.99,VWS V12.06,2013-02-02 23:19:00,
2013-02-02 17:29:00,10.0,4.0,29.25,North,355,0.0,0.0,76,0.00, +RA BR, +RA,-99.99,VWS V12.06,2013-02-02 23:29:00,
2013-02-02 17:34:00,9.7,3.7,29.25,North,355,0.0,0.0,76,0.00, +RA BR, +RA,-99.99,VWS V12.06,2013-02-02 23:34:00,
2013-02-02 17:39:00,9.6,3.6,29.26,North,355,0.0,0.0,76,0.00, +RA BR, +RA,-99.99,VWS V12.06,2013-02-02 23:39:00,
2013-02-02 17:44:00,9.6,3.8,29.26,North,355,0.0,0.0,77,0.00, +RA BR, +RA,-99.99,VWS V12.06,2013-02-02 23:44:00,
2013-02-02 17:49:00,9.4,3.9,29.26,North,355,0.0,0.0,78,0.00, +RA BR, +RA,-99.99,VWS V12.06,2013-02-02 23:49:00,
2013-02-02 17:54:00,9.2,3.5,29.26,North,355,0.0,0.0,77,0.00, +RA BR, +RA,-99.99,VWS V12.06,2013-02-02 23:54:00,
2013-02-02 17:59:00,9.0,3.5,29.26,North,355,0.0,0.0,78,0.00, +RA BR, +RA,-99.99,VWS V12.06,2013-02-02 23:59:00,
2013-02-02 18:04:00,9.0,3.5,29.25,North,355,0.0,0.0,78,0.00, +RA BR, +RA,-99.99,VWS V12.06,2013-02-03 00:04:00,
2013-02-02 18:09:00,8.9,3.5,29.25,North,355,0.0,0.0,78,0.00, +RA BR, +RA,-99.99,VWS V12.06,2013-02-03 00:09:00,
2013-02-02 18:14:00,8.7,3.5,29.25,North,355,0.0,0.0,79,0.00, +RA BR, +RA,-99.99,VWS V12.06,2013-02-03 00:14:00,
2013-02-02 18:20:00,8.5,3.3,29.26,North,355,0.0,0.0,79,0.00, +RA BR, +RA,-99.99,VWS V12.06,2013-02-03 00:20:00,
2013-02-02 18:30:00,8.2,3.3,29.25,North,355,0.0,0.0,80,0.00, +RA BR, +RA,-99.99,VWS V12.06,2013-02-03 00:30:00,
2013-02-02 18:39:00,7.8,2.9,29.25,North,355,0.0,0.0,80,0.00, +RA BR, +RA,-99.99,VWS V12.06,2013-02-03 00:39:00,
2013-02-02 18:44:00,7.5,2.6,29.25,North,355,0.0,0.0,80,0.00, +RA BR, +RA,-99.99,VWS V12.06,2013-02-03 00:44:00,
2013-02-02 18:49:00,7.1,2.5,29.25,North,355,0.0,0.0,81,0.00, +RA BR, +RA,-99.99,VWS V12.06,2013-02-03 00:49:00,
2013-02-02 18:54:00,6.9,2.3,29.25,North,355,0.0,0.0,81,0.00, +RA BR, +RA,-99.99,VWS V12.06,2013-02-03 00:54:00,
2013-02-02 18:59:00,6.7,2.4,29.25,North,355,0.0,0.0,82,0.00, +RA BR, +RA,-99.99,VWS V12.06,2013-02-03 00:59:00,
2013-02-02 19:09:00,6.4,2.3,29.25,North,355,0.0,0.0,83,0.00, +RA BR, +RA,-99.99,VWS V12.06,2013-02-03 01:09:00,
2013-02-02 19:14:00,6.4,2.6,29.26,North,355,0.0,0.0,84,0.00, +RA BR, +RA,-99.99,VWS V12.06,2013-02-03 01:14:00,
2013-02-02 19:19:00,6.2,2.4,29.25,North,355,0.0,0.0,84,0.00, +RA BR, +RA,-99.99,VWS V12.06,2013-02-03 01:19:00,
2013-02-02 19:29:00,6.2,2.7,29.25,North,355,0.0,0.0,85,0.00, +RA BR, +RA,-99.99,VWS V12.06,2013-02-03 01:29:00,
2013-02-02 19:34:00,6.4,3.1,29.25,North,355,0.0,0.0,86,0.00, +RA BR, +RA,-99.99,VWS V12.06,2013-02-03 01:34:00,
2013-02-02 19:39:00,6.4,3.1,29.25,North,355,0.0,0.0,86,0.00, +RA BR, +RA,-99.99,VWS V12.06,2013-02-03 01:39:00,
2013-02-02 19:44:00,6.4,3.4,29.25,North,355,0.0,0.0,87,0.00, +RA BR, +RA,-99.99,VWS V12.06,2013-02-03 01:44:00,
2013-02-02 19:49:00,6.2,3.2,29.25,North,355,0.0,0.0,87,0.00, +RA BR, +RA,-99.99,VWS V12.06,2013-02-03 01:49:00,
2013-02-02 19:54:00,6.2,3.2,29.24,North,355,0.0,0.0,87,0.00, +RA BR, +RA,-99.99,VWS V12.06,2013-02-03 01:54:00,
2013-02-02 19:59:00,6.2,3.4,29.24,North,355,0.0,0.0,88,0.00, +RA BR, +RA,-99.99,VWS V12.06,2013-02-03 01:59:00,
2013-02-02 20:04:00,6.2,3.7,29.24,North,355,0.0,0.0,89,0.00, +RA BR, +RA,-99.99,VWS V12.06,2013-02-03 02:04:00,
2013-02-02 20:09:00,6.4,3.9,29.24,North,355,0.0,0.0,89,0.00, +RA BR, +RA,-99.99,VWS V12.06,2013-02-03 02:09:00,
2013-02-02 20:14:00,6.4,3.9,29.24,North,355,0.0,0.0,89,0.00, +RA BR, +RA,-99.99,VWS V12.06,2013-02-03 02:14:00,
2013-02-02 20:19:00,6.4,3.9,29.23,North,355,0.0,0.0,89,0.00, +RA BR, +RA,-99.99,VWS V12.06,2013-02-03 02:19:00,
2013-02-02 20:29:00,6.4,4.1,29.23,North,355,0.0,0.0,90,0.00, +RA BR, +RA,-99.99,VWS V12.06,2013-02-03 02:29:00,
2013-02-02 20:34:00,6.2,3.7,29.24,North,355,0.0,0.0,89,0.00, +RA BR, +RA,-99.99,VWS V12.06,2013-02-03 02:34:00,
2013-02-02 20:39:00,5.9,3.4,29.23,North,355,0.0,0.0,89,0.00, +RA BR, +RA,-99.99,VWS V12.06,2013-02-03 02:39:00,
2013-02-02 20:44:00,5.7,3.4,29.23,North,355,0.0,0.0,90,0.00, +RA BR, +RA,-99.99,VWS V12.06,2013-02-03 02:44:00,
2013-02-02 20:49:00,5.3,3.0,29.22,North,355,0.0,0.0,90,0.00, +RA BR, +RA,-99.99,VWS V12.06,2013-02-03 02:49:00,
2013-02-02 20:54:00,4.9,2.4,29.22,North,355,0.0,0.0,89,0.00, +RA BR, +RA,-99.99,VWS V12.06,2013-02-03 02:54:00,
2013-02-02 20:59:00,4.4,1.9,29.22,North,355,0.0,0.0,89,0.00, +RA BR, +RA,-99.99,VWS V12.06,2013-02-03 02:59:00,
2013-02-02 21:04:00,4.0,1.5,29.21,North,355,0.0,0.0,89,0.00, +RA BR, +RA,-99.99,VWS V12.06,2013-02-03 03:04:00,
2013-02-02 21:09:00,3.6,1.3,29.21,North,355,0.0,0.0,90,0.00, +RA BR, +RA,-99.99,VWS V12.06,2013-02-03 03:09:00,
2013-02-02 21:14:00,3.6,1.1,29.20,North,355,0.0,0.0,89,0.00, +RA BR, +RA,-99.99,VWS V12.06,2013-02-03 03:14:00,
2013-02-02 21:19:00,3.4,1.1,29.20,North,355,0.0,0.0,90,0.00, +RA BR, +RA,-99.99,VWS V12.06,2013-02-03 03:19:00,
2013-02-02 21:29:00,3.4,1.1,29.20,North,355,0.0,0.0,90,0.00, +RA BR, +RA,-99.99,VWS V12.06,2013-02-03 03:29:00,
2013-02-02 21:34:00,3.4,1.1,29.20,North,355,0.0,0.0,90,0.00, +RA BR, +RA,-99.99,VWS V12.06,2013-02-03 03:34:00,
2013-02-02 21:39:00,3.4,1.4,29.20,North,355,0.0,0.0,91,0.00, +RA BR, +RA,-99.99,VWS V12.06,2013-02-03 03:39:00,
2013-02-02 21:44:00,3.5,1.5,29.21,North,355,0.0,0.0,91,0.00, +RA BR, +RA,-99.99,VWS V12.06,2013-02-03 03:44:00,
2013-02-02 21:49:00,3.4,1.6,29.20,North,355,0.0,0.0,92,0.00, +RA BR, +RA,-99.99,VWS V12.06,2013-02-03 03:49:00,
2013-02-02 21:54:00,3.6,1.8,29.19,North,355,0.0,0.0,92,0.00, +RA BR, +RA,-99.99,VWS V12.06,2013-02-03 03:54:00,
2013-02-02 21:59:00,4.0,2.4,29.20,North,355,0.0,0.0,93,0.00, +RA BR, +RA,-99.99,VWS V12.06,2013-02-03 03:59:00,
2013-02-02 22:04:00,4.9,3.5,29.19,North,355,0.0,0.0,94,0.00, +RA BR, +RA,-99.99,VWS V12.06,2013-02-03 04:04:00,
2013-02-02 22:09:00,5.5,4.2,29.20,North,355,0.0,0.0,94,0.00, +RA BR, +RA,-99.99,VWS V12.06,2013-02-03 04:09:00,
2013-02-02 22:14:00,6.0,4.7,29.20,North,355,0.0,0.0,94,0.00, +RA BR, +RA,-99.99,VWS V12.06,2013-02-03 04:14:00,
2013-02-02 22:24:00,6.6,5.5,29.20,North,355,0.0,2.0,95,0.00, +RA BR, +RA,-99.99,VWS V12.06,2013-02-03 04:24:00,
2013-02-02 22:29:00,6.7,5.3,29.20,North,355,0.0,3.0,94,0.00, +RA BR, +RA,-99.99,VWS V12.06,2013-02-03 04:29:00,
2013-02-02 22:34:00,6.6,5.0,29.20,North,355,0.0,2.0,93,0.00, +RA BR, +RA,-99.99,VWS V12.06,2013-02-03 04:34:00,
2013-02-02 22:39:00,6.6,5.0,29.20,North,355,0.0,2.0,93,0.00, +RA BR, +RA,-99.99,VWS V12.06,2013-02-03 04:39:00,
2013-02-02 22:44:00,6.6,5.2,29.19,North,355,0.0,2.0,94,0.00, +RA BR, +RA,-99.99,VWS V12.06,2013-02-03 04:44:00,
2013-02-02 22:49:00,6.6,5.2,29.19,North,355,0.0,2.0,94,0.00, +RA BR, +RA,-99.99,VWS V12.06,2013-02-03 04:49:00,
2013-02-02 22:54:00,6.6,5.2,29.18,North,355,0.0,2.0,94,0.00, +RA BR, +RA,-99.99,VWS V12.06,2013-02-03 04:54:00,
2013-02-02 22:59:00,6.8,5.4,29.18,North,355,0.0,2.0,94,0.00, +RA BR, +RA,-99.99,VWS V12.06,2013-02-03 04:59:00,
2013-02-02 23:04:00,6.7,5.3,29.18,North,355,0.0,0.0,94,0.00, +RA BR, +RA,-99.99,VWS V12.06,2013-02-03 05:04:00,
2013-02-02 23:09:00,6.9,5.5,29.19,North,355,0.0,2.0,94,0.00, +RA BR, +RA,-99.99,VWS V12.06,2013-02-03 05:09:00,
2013-02-02 23:19:00,7.1,5.5,29.18,North,355,0.0,2.0,93,0.00, +RA BR, +RA,-99.99,VWS V12.06,2013-02-03 05:19:00,
2013-02-02 23:29:00,7.3,5.7,29.18,North,355,0.0,2.0,93,0.00, +RA BR, +RA,-99.99,VWS V12.06,2013-02-03 05:29:00,
2013-02-02 23:34:00,7.5,5.9,29.17,North,355,0.0,1.0,93,0.00, +RA BR, +RA,-99.99,VWS V12.06,2013-02-03 05:34:00,
2013-02-02 23:39:00,7.6,6.0,29.17,North,355,0.0,3.0,93,0.00, +RA BR, +RA,-99.99,VWS V12.06,2013-02-03 05:39:00,
2013-02-02 23:44:00,7.8,6.2,29.17,North,355,0.0,3.0,93,0.00, +RA BR, +RA,-99.99,VWS V12.06,2013-02-03 05:44:00,
2013-02-02 23:49:00,7.8,6.2,29.17,North,355,0.0,3.0,93,0.00, +RA BR, +RA,-99.99,VWS V12.06,2013-02-03 05:49:00,
2013-02-02 23:54:00,8.0,6.2,29.17,North,355,0.0,3.0,92,0.00, +RA BR, +RA,-99.99,VWS V12.06,2013-02-03 05:54:00,
2013-02-02 23:59:00,8.0,6.2,29.17,North,355,0.0,3.0,92,0.00, +RA BR, +RA,-99.99,VWS V12.06,2013-02-03 05:59:00,